createdAt,value
2023-01-23T00:01:22.402Z,11.15
2023-01-23T00:03:52.350Z,10.63
2023-01-23T00:06:20.031Z,10.50
2023-01-23T00:08:47.942Z,10.25
2023-01-23T00:11:17.698Z,10.95
2023-01-23T00:13:45.994Z,10.57
2023-01-23T00:16:16.384Z,10.93
2023-01-23T00:18:45.348Z,11.07
2023-01-23T00:21:15.908Z,10.60
2023-01-23T00:23:44.787Z,11.43
2023-01-23T00:26:15.524Z,11.23
2023-01-23T00:28:45.540Z,11.02
2023-01-23T00:31:16.508Z,10.93
2023-01-23T00:33:45.492Z,10.23
2023-01-23T00:36:16.217Z,9.73
2023-01-23T00:38:44.032Z,10.43
2023-01-23T00:41:13.276Z,10.82
2023-01-23T00:43:40.924Z,11.40
2023-01-23T00:46:08.601Z,9.93
2023-01-23T00:48:36.289Z,10.90
2023-01-23T00:51:04.111Z,10.98
2023-01-23T00:53:33.353Z,10.40
2023-01-23T00:56:00.949Z,10.57
2023-01-23T00:58:29.268Z,11.10
2023-01-23T01:00:57.874Z,10.80
2023-01-23T01:03:25.839Z,10.13
2023-01-23T01:05:54.379Z,11.02
2023-01-23T01:08:22.123Z,10.85
2023-01-23T01:10:51.265Z,11.07
2023-01-23T01:13:21.400Z,10.88
2023-01-23T01:15:51.315Z,11.30
2023-01-23T01:18:19.860Z,10.82
2023-01-23T01:20:48.801Z,10.13
2023-01-23T01:23:16.883Z,11.63
2023-01-23T01:25:44.745Z,10.55
2023-01-23T01:28:14.605Z,10.20
2023-01-23T01:30:43.735Z,10.15
2023-01-23T01:33:12.531Z,9.48
2023-01-23T01:35:41.477Z,10.38
2023-01-23T01:38:09.750Z,10.70
2023-01-23T01:40:39.670Z,9.95
2023-01-23T01:43:09.111Z,10.48
2023-01-23T01:46:08.270Z,9.27
2023-01-23T01:48:41.055Z,10.30
2023-01-23T01:51:17.021Z,10.30
2023-01-23T01:53:47.862Z,10.07
2023-01-23T01:56:18.708Z,10.32
2023-01-23T01:58:51.324Z,10.57
2023-01-23T02:01:21.067Z,10.30
2023-01-23T02:03:52.436Z,9.52
2023-01-23T02:06:21.025Z,9.75
2023-01-23T02:08:55.280Z,10.60
2023-01-23T02:11:22.822Z,10.43
2023-01-23T02:13:53.478Z,10.77
2023-01-23T02:16:29.397Z,10.48
2023-01-23T02:19:01.857Z,10.18
2023-01-23T02:21:30.248Z,11.40
2023-01-23T02:24:08.152Z,10.65
2023-01-23T02:26:41.263Z,10.02
2023-01-23T02:29:09.960Z,10.10
2023-01-23T02:31:46.067Z,11.18
2023-01-23T02:34:16.375Z,11.18
2023-01-23T02:36:48.573Z,10.65
2023-01-23T02:39:18.389Z,10.25
2023-01-23T02:41:54.239Z,10.75
2023-01-23T02:44:29.336Z,10.23
2023-01-23T02:47:03.366Z,11.02
2023-01-23T02:49:33.264Z,10.50
2023-01-23T02:52:09.621Z,10.93
2023-01-23T02:54:37.856Z,10.05
2023-01-23T02:57:06.811Z,10.93
2023-01-23T02:59:54.280Z,11.07
2023-01-23T03:02:23.341Z,10.05
2023-01-23T03:04:50.960Z,10.70
2023-01-23T03:07:23.279Z,10.43
2023-01-23T03:09:50.958Z,11.25
2023-01-23T03:12:19.830Z,10.98
2023-01-23T03:14:48.471Z,10.32
2023-01-23T03:17:16.120Z,10.55
2023-01-23T03:19:44.259Z,10.93
2023-01-23T03:22:15.249Z,10.70
2023-01-23T03:24:42.879Z,9.98
2023-01-23T03:27:11.432Z,9.75
2023-01-23T03:30:02.729Z,9.88
2023-01-23T03:32:30.870Z,11.23
2023-01-23T03:34:59.650Z,11.10
2023-01-23T03:37:27.412Z,10.55
2023-01-23T03:40:16.217Z,10.20
2023-01-23T03:42:45.638Z,10.27
2023-01-23T03:45:17.919Z,9.68
2023-01-23T03:47:46.171Z,9.68
2023-01-23T03:50:13.765Z,9.43
2023-01-23T03:52:45.276Z,9.43
2023-01-23T03:55:14.586Z,9.98
2023-01-23T03:57:43.328Z,9.70
2023-01-23T04:00:21.934Z,9.82
2023-01-23T04:02:58.283Z,10.68
2023-01-23T04:05:27.236Z,9.93
2023-01-23T04:07:54.798Z,10.38
2023-01-23T04:10:23.498Z,10.27
2023-01-23T04:12:58.630Z,10.45
2023-01-23T04:15:27.993Z,9.80
2023-01-23T04:17:58.063Z,9.70
2023-01-23T04:20:27.004Z,10.18
2023-01-23T04:22:55.691Z,9.65
2023-01-23T04:25:48.479Z,9.63
2023-01-23T04:28:16.917Z,10.13
2023-01-23T04:30:48.053Z,10.60
2023-01-23T04:33:22.009Z,9.80
2023-01-23T04:35:52.431Z,9.55
2023-01-23T04:38:20.827Z,10.80
2023-01-23T04:40:49.438Z,10.60
2023-01-23T04:43:17.400Z,10.05
2023-01-23T04:45:53.743Z,10.38
2023-01-23T04:48:48.820Z,10.27
2023-01-23T04:51:17.769Z,10.45
2023-01-23T04:53:46.611Z,10.68
2023-01-23T04:56:14.681Z,10.80
2023-01-23T04:58:44.248Z,10.50
2023-01-23T05:01:23.019Z,10.38
2023-01-23T05:03:53.188Z,10.23
2023-01-23T05:06:20.876Z,10.18
2023-01-23T05:08:49.857Z,11.10
2023-01-23T05:11:25.044Z,10.68
2023-01-23T05:13:53.041Z,10.48
2023-01-23T05:16:23.359Z,11.07
2023-01-23T05:19:17.378Z,10.13
2023-01-23T05:21:45.588Z,9.73
2023-01-23T05:24:19.417Z,10.07
2023-01-23T05:26:48.909Z,9.45
2023-01-23T05:29:17.651Z,9.02
2023-01-23T05:31:55.076Z,9.60
2023-01-23T05:34:38.309Z,9.85
2023-01-23T05:37:16.758Z,9.55
2023-01-23T05:39:49.306Z,9.68
2023-01-23T05:42:16.981Z,10.05
2023-01-23T05:45:08.477Z,9.98
2023-01-23T05:48:06.013Z,9.80
2023-01-23T05:50:58.224Z,9.13
2023-01-23T05:53:29.262Z,9.80
2023-01-23T05:55:58.332Z,9.93
2023-01-23T05:58:26.045Z,9.73
2023-01-23T06:01:15.338Z,10.13
2023-01-23T06:04:07.365Z,11.02
2023-01-23T06:06:43.793Z,9.70
2023-01-23T06:09:15.267Z,10.43
2023-01-23T06:14:41.835Z,10.15
2023-01-23T06:17:10.264Z,10.20
2023-01-23T06:19:39.398Z,10.55
2023-01-23T06:22:07.059Z,10.88
2023-01-23T06:24:47.214Z,10.88
2023-01-23T06:27:15.094Z,10.73
2023-01-23T06:29:43.295Z,10.43
2023-01-23T06:32:11.072Z,10.27
2023-01-23T06:34:40.475Z,10.15
2023-01-23T06:37:09.237Z,10.23
2023-01-23T06:39:38.237Z,10.82
2023-01-23T06:42:10.065Z,10.68
2023-01-23T06:44:44.796Z,11.77
2023-01-23T06:47:15.635Z,11.48
2023-01-23T06:49:47.012Z,11.10
2023-01-23T06:52:17.253Z,11.32
2023-01-23T06:54:47.586Z,11.30
2023-01-23T06:57:16.686Z,11.80
2023-01-23T06:59:46.645Z,11.15
2023-01-23T07:02:16.615Z,10.40
2023-01-23T07:04:53.302Z,10.65
2023-01-23T07:07:21.051Z,10.82
2023-01-23T07:09:50.466Z,10.60
2023-01-23T07:12:26.309Z,10.80
2023-01-23T07:14:54.742Z,11.40
2023-01-23T07:17:27.233Z,10.95
2023-01-23T07:19:57.038Z,11.05
2023-01-23T07:22:25.857Z,10.85
2023-01-23T07:24:53.633Z,10.73
2023-01-23T07:27:21.340Z,11.48
2023-01-23T07:29:49.234Z,11.10
2023-01-23T07:32:16.807Z,10.80
2023-01-23T07:34:47.715Z,11.80
2023-01-23T07:37:17.271Z,11.48
2023-01-23T07:39:46.317Z,11.57
2023-01-23T07:42:15.257Z,10.75
2023-01-23T07:44:45.120Z,10.65
2023-01-23T07:47:13.253Z,11.20
2023-01-23T07:52:36.265Z,11.52
2023-01-23T07:55:06.271Z,11.65
2023-01-23T07:57:35.667Z,12.38
2023-01-23T08:00:04.514Z,11.75
2023-01-23T08:02:40.167Z,11.77
2023-01-23T08:05:09.363Z,12.55
2023-01-23T08:07:38.973Z,12.25
2023-01-23T08:10:08.355Z,12.55
2023-01-23T08:12:36.819Z,12.55
2023-01-23T08:15:04.699Z,13.07
2023-01-23T08:17:32.294Z,12.73
2023-01-23T08:19:59.837Z,12.02
2023-01-23T08:22:29.265Z,13.20
2023-01-23T08:24:59.345Z,12.38
2023-01-23T08:27:26.907Z,12.77
2023-01-23T08:29:55.247Z,12.20
2023-01-23T08:32:22.987Z,13.02
2023-01-23T08:34:50.633Z,13.32
2023-01-23T08:37:18.250Z,12.45
2023-01-23T08:39:47.145Z,12.65
2023-01-23T08:42:15.995Z,11.18
2023-01-23T08:44:43.540Z,11.75
2023-01-23T08:47:11.290Z,11.70
2023-01-23T08:49:41.331Z,11.23
2023-01-23T08:52:09.756Z,11.50
2023-01-23T08:54:38.271Z,11.52
2023-01-23T08:57:07.137Z,11.77
2023-01-23T08:59:36.072Z,10.32
2023-01-23T09:02:04.715Z,10.10
2023-01-23T09:04:32.327Z,10.10
2023-01-23T09:06:59.888Z,10.23
2023-01-23T09:09:29.986Z,10.63
2023-01-23T09:11:57.545Z,9.93
2023-01-23T09:14:25.198Z,10.93
2023-01-23T09:16:55.286Z,10.07
2023-01-23T09:19:22.869Z,10.27
2023-01-23T09:21:53.427Z,10.63
2023-01-23T09:24:21.037Z,10.13
2023-01-23T09:26:48.639Z,10.10
2023-01-23T09:29:17.257Z,11.27
2023-01-23T09:31:48.382Z,11.15
2023-01-23T09:34:20.337Z,10.90
2023-01-23T09:36:47.918Z,10.48
2023-01-23T09:39:16.256Z,10.80
2023-01-23T09:41:47.327Z,10.50
2023-01-23T09:46:51.006Z,10.43
2023-01-23T09:49:30.247Z,10.88
2023-01-23T09:52:02.553Z,11.43
2023-01-23T09:54:38.141Z,11.98
2023-01-23T09:57:14.288Z,11.75
2023-01-23T09:59:59.051Z,12.05
2023-01-23T10:02:32.124Z,11.90
2023-01-23T10:05:02.746Z,11.15
2023-01-23T10:07:47.273Z,11.40
2023-01-23T10:10:27.853Z,11.07
2023-01-23T10:13:07.948Z,11.20
2023-01-23T10:15:55.255Z,11.90
2023-01-23T10:18:26.861Z,11.50
2023-01-23T10:23:48.453Z,12.00
2023-01-23T10:26:21.666Z,11.52
2023-01-23T10:28:54.848Z,11.18
2023-01-23T10:31:36.656Z,12.50
2023-01-23T10:34:16.263Z,11.82
2023-01-23T10:37:02.264Z,12.25
2023-01-23T10:39:46.729Z,12.40
2023-01-23T10:42:17.340Z,12.27
2023-01-23T10:44:45.682Z,12.27
2023-01-23T10:47:20.990Z,12.30
2023-01-23T10:49:50.286Z,12.75
2023-01-23T10:52:35.608Z,12.05
2023-01-23T10:55:06.109Z,12.48
2023-01-23T10:57:45.273Z,11.77
2023-01-23T11:00:22.316Z,11.35
2023-01-23T11:02:49.996Z,11.27
2023-01-23T11:05:52.767Z,12.15
2023-01-23T11:08:29.030Z,11.38
2023-01-23T11:11:19.440Z,10.98
2023-01-23T11:13:49.043Z,11.52
2023-01-23T11:16:18.448Z,11.35
2023-01-23T11:18:52.978Z,12.27
2023-01-23T11:21:25.453Z,11.77
2023-01-23T11:24:10.257Z,12.15
2023-01-23T11:26:39.556Z,12.35
2023-01-23T11:29:24.645Z,11.82
2023-01-23T11:32:00.434Z,12.07
2023-01-23T11:34:34.372Z,12.48
2023-01-23T11:37:10.274Z,12.13
2023-01-23T11:39:48.052Z,12.65
2023-01-23T11:42:18.460Z,11.60
2023-01-23T11:44:47.251Z,11.88
2023-01-23T11:47:47.267Z,11.77
2023-01-23T11:50:30.523Z,12.50
2023-01-23T11:53:06.254Z,11.77
2023-01-23T11:56:24.727Z,12.65
2023-01-23T11:59:12.302Z,12.25
2023-01-23T12:02:03.081Z,12.52
2023-01-23T12:05:00.783Z,12.17
2023-01-23T12:07:36.271Z,11.52
2023-01-23T12:10:24.264Z,12.07
2023-01-23T12:13:11.541Z,12.55
2023-01-23T12:15:47.347Z,11.82
2023-01-23T12:18:28.555Z,12.20
2023-01-23T12:21:04.177Z,11.87
2023-01-23T12:23:45.526Z,12.13
2023-01-23T12:26:16.044Z,12.75
2023-01-23T12:29:15.523Z,12.63
2023-01-23T12:32:02.955Z,12.93
2023-01-23T12:34:49.288Z,11.70
2023-01-23T12:37:39.225Z,12.15
2023-01-23T12:40:13.847Z,12.10
2023-01-23T12:42:48.552Z,11.90
2023-01-23T12:45:23.067Z,11.57
2023-01-23T12:48:01.689Z,11.52
2023-01-23T12:50:40.392Z,12.55
2023-01-23T12:53:13.197Z,12.15
2023-01-23T12:55:51.260Z,12.05
2023-01-23T12:58:20.104Z,12.00
2023-01-23T13:01:02.498Z,12.57
2023-01-23T13:03:54.857Z,12.63
2023-01-23T13:09:16.679Z,12.77
2023-01-23T13:11:51.404Z,12.20
2023-01-23T13:14:25.560Z,13.35
2023-01-23T13:16:58.748Z,11.80
2023-01-23T13:19:46.851Z,12.40
2023-01-23T13:22:28.616Z,12.90
2023-01-23T13:25:12.715Z,12.98
2023-01-23T13:27:47.126Z,13.02
2023-01-23T13:30:43.348Z,12.68
2023-01-23T13:33:52.179Z,12.75
2023-01-23T13:36:39.495Z,12.55
2023-01-23T13:39:29.299Z,11.75
2023-01-23T13:42:33.176Z,11.73
2023-01-23T13:45:30.975Z,12.85
2023-01-23T14:21:23.702Z,12.23
2023-01-23T14:23:54.072Z,13.73
2023-01-23T14:26:27.883Z,13.63
2023-01-23T14:28:57.956Z,13.05
2023-01-23T14:31:29.121Z,13.85
2023-01-23T14:34:09.817Z,14.73
2023-01-23T14:36:45.316Z,13.60
2023-01-23T14:39:18.929Z,12.98
2023-01-23T14:41:48.227Z,13.40
2023-01-23T14:44:22.134Z,13.32
2023-01-23T14:46:55.343Z,12.80
2023-01-23T14:49:27.585Z,12.90
2023-01-23T14:51:58.717Z,13.50
2023-01-23T14:54:31.805Z,13.70
2023-01-23T14:57:04.310Z,13.27
2023-01-23T14:59:35.516Z,13.27
2023-01-23T15:02:23.513Z,13.20
2023-01-23T15:05:07.683Z,13.50
2023-01-23T15:07:36.785Z,12.52
2023-01-23T15:10:04.711Z,12.88
2023-01-23T15:12:32.292Z,13.40
2023-01-23T15:15:00.217Z,13.65
2023-01-23T15:17:29.363Z,13.98
2023-01-23T15:20:01.616Z,13.85
2023-01-23T15:22:32.531Z,13.98
2023-01-23T15:25:27.257Z,13.55
2023-01-23T15:27:54.876Z,14.32
2023-01-23T15:30:30.659Z,14.15
2023-01-23T15:33:05.952Z,14.43
2023-01-23T15:35:35.255Z,14.60
2023-01-23T15:38:04.866Z,14.15
2023-01-23T15:40:36.711Z,14.30
2023-01-23T15:43:08.304Z,14.48
2023-01-23T15:45:37.302Z,14.93
2023-01-23T15:48:08.296Z,15.32
2023-01-23T15:50:36.311Z,15.50
2023-01-23T15:53:04.531Z,14.05
2023-01-23T15:55:32.078Z,15.55
2023-01-23T15:58:00.136Z,14.55
2023-01-23T16:00:30.469Z,15.98
2023-01-23T16:03:00.358Z,14.20
2023-01-23T16:05:34.833Z,14.23
2023-01-23T16:08:05.648Z,14.68
2023-01-23T16:10:38.400Z,14.43
2023-01-23T16:13:08.234Z,14.50
2023-01-23T16:15:39.460Z,14.02
2023-01-23T16:18:07.494Z,14.70
2023-01-23T16:20:39.951Z,14.82
2023-01-23T16:23:15.439Z,15.48
2023-01-23T16:25:46.004Z,15.13
2023-01-23T16:28:14.895Z,14.98
2023-01-23T16:30:42.816Z,14.70
2023-01-23T16:33:10.423Z,14.77
2023-01-23T16:35:39.682Z,15.50
2023-01-23T16:38:07.890Z,14.60
2023-01-23T16:40:35.717Z,15.38
2023-01-23T16:43:03.613Z,15.55
2023-01-23T16:45:32.737Z,15.77
2023-01-23T16:48:01.258Z,16.08
2023-01-23T16:54:19.264Z,14.38
2023-01-23T16:56:52.651Z,14.65
2023-01-23T16:59:22.698Z,15.85
2023-01-23T17:01:52.793Z,15.48
2023-01-23T17:04:22.438Z,15.55
2023-01-23T17:06:50.896Z,15.48
2023-01-23T17:09:19.925Z,15.50
2023-01-23T17:11:51.488Z,15.65
2023-01-23T17:14:23.730Z,15.65
2023-01-23T17:16:53.098Z,15.20
2023-01-23T17:19:25.140Z,15.50
2023-01-23T17:21:53.275Z,15.60
2023-01-23T17:24:22.251Z,16.95
2023-01-23T17:26:49.807Z,16.77
2023-01-23T17:29:18.418Z,16.10
2023-01-23T17:31:46.541Z,16.42
2023-01-23T17:34:21.800Z,16.05
2023-01-23T17:36:49.827Z,16.70
2023-01-23T17:39:17.426Z,14.25
2023-01-23T17:41:46.644Z,15.32
2023-01-23T17:44:14.678Z,14.50
2023-01-23T17:46:42.411Z,14.95
2023-01-23T17:49:28.941Z,16.00
2023-01-23T17:51:59.608Z,15.80
2023-01-23T17:54:28.743Z,15.20
2023-01-23T17:56:59.965Z,15.50
2023-01-23T17:59:27.921Z,15.48
2023-01-23T18:01:56.889Z,16.13
2023-01-23T18:04:24.512Z,16.60
2023-01-23T18:06:52.204Z,14.55
2023-01-23T18:09:21.241Z,15.43
2023-01-23T18:11:52.322Z,15.55
2023-01-23T18:14:37.480Z,15.88
2023-01-23T18:17:16.246Z,16.50
2023-01-23T18:19:45.273Z,16.08
2023-01-23T18:22:13.344Z,16.27
2023-01-23T18:24:42.276Z,16.27
2023-01-23T18:27:21.262Z,17.58
2023-01-23T18:30:04.469Z,16.95
2023-01-23T18:32:57.598Z,16.70
2023-01-23T18:35:36.990Z,16.75
2023-01-23T18:38:14.161Z,17.15
2023-01-23T18:40:47.460Z,17.60
2023-01-23T18:43:27.157Z,16.55
2023-01-23T18:45:56.785Z,16.17
2023-01-23T18:48:26.061Z,16.52
2023-01-23T18:51:05.885Z,16.08
2023-01-23T18:53:44.826Z,16.25
2023-01-23T18:56:23.528Z,16.25
2023-01-23T18:59:11.811Z,16.35
2023-01-23T19:01:52.160Z,15.27
2023-01-23T19:04:26.359Z,16.05
2023-01-23T19:06:54.593Z,17.63
2023-01-23T19:09:22.841Z,15.45
2023-01-23T19:12:01.296Z,16.10
2023-01-23T19:14:45.330Z,16.13
2023-01-23T19:17:26.271Z,15.57
2023-01-23T19:20:02.402Z,15.20
2023-01-23T19:22:44.022Z,15.40
2023-01-23T19:25:18.317Z,17.98
2023-01-23T19:27:52.586Z,17.27
2023-01-23T19:30:22.601Z,16.15
2023-01-23T19:32:51.587Z,16.48
2023-01-23T19:35:21.334Z,17.23
2023-01-23T19:37:49.131Z,16.52
2023-01-23T19:40:17.769Z,15.07
2023-01-23T19:42:58.633Z,14.75
2023-01-23T19:45:29.482Z,15.27
2023-01-23T19:47:59.825Z,16.17
2023-01-23T19:50:27.435Z,15.73
2023-01-23T19:52:56.758Z,15.82
2023-01-23T19:55:29.250Z,15.95
2023-01-23T19:57:58.246Z,15.38
2023-01-23T20:00:27.455Z,15.50
2023-01-23T20:02:55.189Z,15.05
2023-01-23T20:05:24.781Z,14.48
2023-01-23T20:07:53.840Z,14.52
2023-01-23T20:10:22.485Z,14.95
2023-01-23T20:12:54.264Z,14.93
2023-01-23T20:15:26.963Z,15.02
2023-01-23T20:17:55.313Z,14.83
2023-01-23T20:20:25.275Z,14.85
2023-01-23T20:22:52.885Z,14.77
2023-01-23T20:25:21.177Z,14.60
2023-01-23T20:27:49.458Z,14.77
2023-01-23T20:30:20.392Z,14.50
2023-01-23T20:32:49.958Z,14.88
2023-01-23T20:35:18.150Z,15.43
2023-01-23T20:37:47.125Z,15.07
2023-01-23T20:40:14.713Z,14.88
2023-01-23T20:42:42.409Z,14.65
2023-01-23T20:45:12.074Z,14.07
2023-01-23T20:47:39.647Z,13.75
2023-01-23T20:50:07.950Z,13.23
2023-01-23T20:52:54.170Z,14.10
2023-01-23T20:55:23.661Z,13.80
2023-01-23T20:58:09.501Z,13.80
2023-01-23T21:00:37.537Z,13.65
2023-01-23T21:03:06.364Z,13.18
2023-01-23T21:05:34.018Z,12.63
2023-01-23T21:08:02.623Z,12.98
2023-01-23T21:13:03.347Z,12.50
2023-01-23T21:15:33.142Z,13.00
2023-01-23T21:18:01.328Z,12.98
2023-01-23T21:20:28.971Z,13.23
2023-01-23T21:22:56.812Z,13.07
2023-01-23T21:25:24.641Z,13.25
2023-01-23T21:27:54.374Z,12.75
2023-01-23T21:30:21.976Z,14.50
2023-01-23T21:32:50.431Z,13.50
2023-01-23T21:35:18.192Z,14.90
2023-01-23T21:37:46.489Z,15.20
2023-01-23T21:40:14.748Z,13.98
2023-01-23T21:42:42.448Z,13.95
2023-01-23T21:45:12.313Z,15.38
2023-01-23T21:47:40.854Z,15.50
2023-01-23T21:50:09.994Z,14.32
2023-01-23T21:52:37.827Z,14.25
2023-01-23T21:55:06.310Z,13.82
2023-01-23T21:57:34.314Z,14.00
2023-01-23T22:00:23.142Z,14.38
2023-01-23T22:02:52.373Z,14.65
2023-01-23T22:05:21.123Z,14.23
2023-01-23T22:07:49.375Z,13.45
2023-01-23T22:10:17.381Z,14.10
2023-01-23T22:12:45.376Z,13.68
2023-01-23T22:15:13.001Z,13.40
2023-01-23T22:17:40.597Z,13.50
2023-01-23T22:20:12.438Z,14.05
2023-01-23T22:22:41.048Z,13.30
2023-01-23T22:25:09.876Z,14.25
2023-01-23T22:27:37.428Z,12.82
2023-01-23T22:30:05.565Z,12.75
2023-01-23T22:32:36.274Z,13.07
2023-01-23T22:35:04.307Z,12.88
2023-01-23T22:37:33.157Z,12.93
2023-01-23T22:40:00.745Z,13.75
2023-01-23T22:42:28.734Z,13.18
2023-01-23T22:44:56.432Z,13.68
2023-01-23T22:47:24.015Z,12.80
2023-01-23T22:49:51.610Z,13.35
2023-01-23T22:52:19.207Z,13.10
2023-01-23T22:54:48.061Z,13.15
2023-01-23T22:57:15.778Z,13.50
2023-01-23T22:59:43.309Z,12.93
2023-01-23T23:02:11.237Z,13.90
2023-01-23T23:04:39.125Z,11.90
2023-01-23T23:07:06.985Z,13.82
2023-01-23T23:09:34.777Z,12.73
2023-01-23T23:12:03.804Z,12.77
2023-01-23T23:14:31.510Z,11.73
2023-01-23T23:16:59.485Z,12.00
2023-01-23T23:19:27.245Z,11.13
2023-01-23T23:21:56.257Z,11.82
2023-01-23T23:24:49.549Z,11.10
2023-01-23T23:27:18.516Z,11.00
2023-01-23T23:29:46.316Z,11.10
2023-01-23T23:32:13.878Z,12.10
2023-01-23T23:34:44.424Z,12.30
2023-01-23T23:37:12.056Z,11.00
2023-01-23T23:39:39.590Z,10.80
2023-01-23T23:42:07.289Z,10.05
2023-01-23T23:44:36.265Z,10.05
2023-01-23T23:47:04.946Z,10.15
2023-01-23T23:49:33.260Z,9.85
2023-01-23T23:52:00.835Z,9.52
2023-01-23T23:54:28.557Z,10.18
2023-01-23T23:56:56.139Z,9.32
2023-01-23T23:59:23.803Z,9.50
